Time;durP1;ratioP1;P1;durP2;ratioP2;P2;SDS_P1;SDS_P2;PMS_P1;PMS_P2;Temp;Humidity;BMP_temperature;BMP_pressure;BME280_temperature;BME280_humidity;BME280_pressure;Samples;Min_cycle;Max_cycle;Signal;HPM_P1;HPM_P2
2022/09/23 00:01:25;;;;;;;;;;;10.90;99.90;;;;;;5032640;28;19960;-89
2022/09/23 00:03:51;;;;;;;;;;;10.90;99.90;;;;;;5032967;28;19975;-88
2022/09/23 00:06:22;;;;;;;;;;;10.90;99.90;;;;;;5046022;28;19963;-79
2022/09/23 00:08:48;;;;;;;;;;;10.90;99.90;;;;;;5046536;28;19974;-82
2022/09/23 00:11:16;;;;;;;;;;;11.40;99.90;;;;;;5042845;28;20491;-80
2022/09/23 00:13:42;;;;;;;;;;;10.90;99.90;;;;;;5030217;28;19936;-90
2022/09/23 00:16:27;;;;;;;;;;;10.90;99.90;;;;;;5032257;28;19929;-80
2022/09/23 00:18:54;;;;;;;;;;;10.90;99.90;;;;;;5034381;28;19928;-86
2022/09/23 00:21:20;;;;;;;;;;;10.90;99.90;;;;;;5052780;28;19928;-85
2022/09/23 00:23:46;;;;;;;;;;;10.80;99.90;;;;;;5028362;28;19928;-88
2022/09/23 00:26:15;;;;;;;;;;;10.80;99.90;;;;;;5051200;28;20259;-90
2022/09/23 00:28:42;;;;;;;;;;;10.80;99.90;;;;;;5052308;28;19929;-89
2022/09/23 00:31:11;;;;;;;;;;;10.90;99.90;;;;;;5036584;28;20565;-85
2022/09/23 00:33:42;;;;;;;;;;;10.80;99.90;;;;;;5050273;28;19932;-91
2022/09/23 00:36:10;;;;;;;;;;;10.80;99.90;;;;;;5051793;28;19982;-88
2022/09/23 00:38:36;;;;;;;;;;;10.80;99.90;;;;;;5051148;28;19928;-80
2022/09/23 00:41:02;;;;;;;;;;;10.80;99.90;;;;;;5043721;28;19976;-81
2022/09/23 00:43:55;;;;;;;;;;;10.80;99.90;;;;;;5048489;28;19978;-83
2022/09/23 00:46:28;;;;;;;;;;;10.80;99.90;;;;;;5029092;28;20333;-82
2022/09/23 00:49:00;;;;;;;;;;;10.80;99.90;;;;;;5029453;28;19925;-86
2022/09/23 00:51:31;;;;;;;;;;;10.70;99.90;;;;;;5043646;28;20007;-84
2022/09/23 00:53:57;;;;;;;;;;;10.70;99.90;;;;;;5046453;28;19990;-80
2022/09/23 00:56:24;;;;;;;;;;;10.70;99.90;;;;;;5014206;28;20410;-85
2022/09/23 00:58:50;;;;;;;;;;;10.70;99.90;;;;;;5028754;28;19925;-84
2022/09/23 01:01:18;;;;;;;;;;;10.70;99.90;;;;;;5035395;28;20435;-85
2022/09/23 01:03:44;;;;;;;;;;;10.70;99.90;;;;;;5049173;28;20456;-83
2022/09/23 01:06:10;;;;;;;;;;;9.80;99.90;;;;;;5048045;28;19929;-83
2022/09/23 01:08:36;;;;;;;;;;;10.70;99.90;;;;;;5017596;28;19990;-81
2022/09/23 01:11:08;;;;;;;;;;;10.60;99.90;;;;;;5033865;28;20425;-85
2022/09/23 01:13:54;;;;;;;;;;;10.60;99.90;;;;;;5051094;28;20397;-84
2022/09/23 01:16:46;;;;;;;;;;;10.60;99.90;;;;;;5047728;28;19924;-79
2022/09/23 01:19:34;;;;;;;;;;;10.60;99.90;;;;;;5029160;28;20403;-84
2022/09/23 01:22:07;;;;;;;;;;;10.60;99.90;;;;;;5029917;28;20399;-83
2022/09/23 01:24:46;;;;;;;;;;;10.60;99.90;;;;;;5051798;28;19932;-84
2022/09/23 01:27:18;;;;;;;;;;;10.60;99.90;;;;;;5049504;28;19931;-80
2022/09/23 01:29:54;;;;;;;;;;;10.60;99.90;;;;;;5063487;28;20030;-81
2022/09/23 01:32:32;;;;;;;;;;;10.60;99.90;;;;;;5027011;28;19925;-78
2022/09/23 01:34:59;;;;;;;;;;;10.60;99.90;;;;;;5051518;28;19956;-83
2022/09/23 01:37:31;;;;;;;;;;;10.60;99.90;;;;;;5066837;28;19931;-80
2022/09/23 01:40:16;;;;;;;;;;;10.60;99.90;;;;;;5050141;28;20033;-79
2022/09/23 01:42:55;;;;;;;;;;;10.60;99.90;;;;;;5041677;28;19932;-82
2022/09/23 01:45:20;;;;;;;;;;;10.50;99.90;;;;;;5042947;28;19924;-84
2022/09/23 01:47:53;;;;;;;;;;;10.60;99.90;;;;;;5030207;28;20405;-81
2022/09/23 01:53:12;;;;;;;;;;;10.50;99.90;;;;;;5044767;28;20448;-84
2022/09/23 01:55:43;;;;;;;;;;;10.50;99.90;;;;;;5051221;28;20386;-80
2022/09/23 01:58:16;;;;;;;;;;;10.50;99.90;;;;;;5047909;28;19940;-81
2022/09/23 02:00:47;;;;;;;;;;;10.50;99.90;;;;;;5053879;28;19925;-82
2022/09/23 02:03:16;;;;;;;;;;;10.40;99.90;;;;;;5046645;28;19924;-84
2022/09/23 02:09:00;;;;;;;;;;;10.40;99.90;;;;;;5115361;22;19931;-80
2022/09/23 02:11:28;;;;;;;;;;;10.40;99.90;;;;;;5071278;28;19932;-82
2022/09/23 02:13:53;;;;;;;;;;;10.40;99.90;;;;;;5088585;28;20440;-90
2022/09/23 02:16:21;;;;;;;;;;;10.30;99.90;;;;;;5059220;28;19939;-89
2022/09/23 02:18:52;;;;;;;;;;;10.30;99.90;;;;;;5072546;28;19924;-88
2022/09/23 02:21:18;;;;;;;;;;;10.30;99.90;;;;;;5070449;28;19925;-85
2022/09/23 02:23:49;;;;;;;;;;;10.30;99.90;;;;;;5037340;28;19924;-88
2022/09/23 02:26:34;;;;;;;;;;;10.30;99.90;;;;;;5063666;28;19931;-89
2022/09/23 02:29:32;;;;;;;;;;;10.30;99.90;;;;;;5085551;28;20394;-84
2022/09/23 02:32:04;;;;;;;;;;;10.30;99.90;;;;;;5047756;28;20491;-82
2022/09/23 02:34:41;;;;;;;;;;;10.20;99.90;;;;;;5073305;28;19931;-85
2022/09/23 02:37:20;;;;;;;;;;;10.10;99.90;;;;;;5091414;28;20075;-83
2022/09/23 02:40:05;;;;;;;;;;;10.10;99.90;;;;;;5091224;28;19924;-84
2022/09/23 02:42:35;;;;;;;;;;;10.10;99.90;;;;;;5092419;28;19931;-84
2022/09/23 02:45:20;;;;;;;;;;;10.00;99.90;;;;;;5089716;28;19950;-91
2022/09/23 02:47:47;;;;;;;;;;;10.00;99.90;;;;;;5079734;28;19931;-88
2022/09/23 02:50:33;;;;;;;;;;;10.00;99.90;;;;;;5094465;28;19927;-88
2022/09/23 02:53:00;;;;;;;;;;;10.00;99.90;;;;;;5090896;28;19946;-91
2022/09/23 02:55:31;;;;;;;;;;;10.00;99.90;;;;;;5077377;28;19930;-89
2022/09/23 02:58:01;;;;;;;;;;;10.00;99.90;;;;;;5076664;28;19923;-91
2022/09/23 03:00:33;;;;;;;;;;;10.10;99.90;;;;;;5071071;28;19924;-91
2022/09/23 03:03:17;;;;;;;;;;;10.00;99.90;;;;;;5087278;28;19928;-93
2022/09/23 03:05:51;;;;;;;;;;;10.00;99.90;;;;;;5095134;28;19923;-87
2022/09/23 03:08:18;;;;;;;;;;;10.00;99.90;;;;;;5087380;28;19925;-86
2022/09/23 03:10:53;;;;;;;;;;;10.00;99.90;;;;;;5091581;28;19924;-88
2022/09/23 03:13:38;;;;;;;;;;;10.00;99.90;;;;;;5076108;28;20435;-86
2022/09/23 03:16:10;;;;;;;;;;;10.00;99.90;;;;;;5092880;28;20633;-91
2022/09/23 03:18:39;;;;;;;;;;;10.00;99.90;;;;;;5094508;28;19923;-91
2022/09/23 03:21:21;;;;;;;;;;;10.00;99.90;;;;;;5076166;28;19928;-86
2022/09/23 03:23:48;;;;;;;;;;;9.90;99.90;;;;;;5092564;28;19923;-86
2022/09/23 03:26:22;;;;;;;;;;;9.90;99.90;;;;;;5074994;28;19923;-90
2022/09/23 03:28:50;;;;;;;;;;;9.90;99.90;;;;;;5091696;28;20297;-91
2022/09/23 03:31:17;;;;;;;;;;;9.90;99.90;;;;;;5066180;28;19997;-90
2022/09/23 03:33:49;;;;;;;;;;;9.90;99.90;;;;;;5056774;28;19931;-86
2022/09/23 03:39:07;;;;;;;;;;;9.90;99.90;;;;;;5085453;28;20551;-88
2022/09/23 03:41:40;;;;;;;;;;;9.80;99.90;;;;;;5092918;28;20485;-91
2022/09/23 03:44:09;;;;;;;;;;;9.80;99.90;;;;;;5088486;28;19931;-86
2022/09/23 03:46:35;;;;;;;;;;;9.80;99.90;;;;;;5077685;28;19946;-79
2022/09/23 03:49:12;;;;;;;;;;;9.80;99.90;;;;;;5093277;28;19923;-79
2022/09/23 03:51:38;;;;;;;;;;;9.70;99.90;;;;;;5111050;28;20408;-85
2022/09/23 03:54:03;;;;;;;;;;;9.70;99.90;;;;;;5106730;28;19932;-86
2022/09/23 03:56:30;;;;;;;;;;;9.70;99.90;;;;;;5106731;28;20012;-81
2022/09/23 03:58:56;;;;;;;;;;;9.70;99.90;;;;;;5092873;28;20322;-81
2022/09/23 04:01:23;;;;;;;;;;;9.70;99.90;;;;;;5088739;28;19974;-82
2022/09/23 04:03:50;;;;;;;;;;;9.60;99.90;;;;;;5070386;28;19927;-91
2022/09/23 04:06:16;;;;;;;;;;;9.60;99.90;;;;;;5110257;28;20326;-79
2022/09/23 04:08:41;;;;;;;;;;;9.60;99.90;;;;;;5091549;28;19931;-81
2022/09/23 04:11:08;;;;;;;;;;;9.60;99.90;;;;;;5057410;28;20290;-87
2022/09/23 04:13:34;;;;;;;;;;;9.60;99.90;;;;;;5067658;28;20083;-81
2022/09/23 04:16:00;;;;;;;;;;;9.60;99.90;;;;;;5090073;28;20289;-82
2022/09/23 04:21:34;;;;;;;;;;;9.50;99.90;;;;;;5093952;28;19924;-86
2022/09/23 04:24:01;;;;;;;;;;;9.50;99.90;;;;;;5093654;28;20015;-88
2022/09/23 04:26:26;;;;;;;;;;;9.50;99.90;;;;;;5076767;28;19923;-88
2022/09/23 04:28:53;;;;;;;;;;;9.40;99.90;;;;;;5084184;28;20051;-87
2022/09/23 04:31:18;;;;;;;;;;;9.40;99.90;;;;;;5061770;28;19985;-88
2022/09/23 04:33:44;;;;;;;;;;;9.40;99.90;;;;;;5057711;28;19974;-90
2022/09/23 04:36:10;;;;;;;;;;;9.40;99.90;;;;;;5057712;28;20361;-86
2022/09/23 04:38:36;;;;;;;;;;;9.30;99.90;;;;;;5057992;28;19931;-88
2022/09/23 04:41:02;;;;;;;;;;;9.30;99.90;;;;;;5057377;28;19919;-86
2022/09/23 04:43:28;;;;;;;;;;;9.20;99.90;;;;;;5054912;28;19936;-81
2022/09/23 04:45:59;;;;;;;;;;;9.20;99.90;;;;;;5070537;28;20098;-83
2022/09/23 04:48:26;;;;;;;;;;;9.20;99.90;;;;;;5071345;28;20015;-83
2022/09/23 04:50:52;;;;;;;;;;;9.10;99.90;;;;;;5070495;28;19927;-79
2022/09/23 04:53:18;;;;;;;;;;;9.10;99.90;;;;;;5088437;28;19932;-79
2022/09/23 04:55:44;;;;;;;;;;;9.00;99.90;;;;;;5054809;28;19949;-79
2022/09/23 04:58:11;;;;;;;;;;;9.00;99.90;;;;;;5086871;28;20405;-81
2022/09/23 05:00:37;;;;;;;;;;;9.00;99.90;;;;;;5071322;28;19963;-81
2022/09/23 05:03:03;;;;;;;;;;;9.00;99.90;;;;;;5086537;28;19971;-79
2022/09/23 05:06:07;;;;;;;;;;;8.90;99.90;;;;;;5088156;28;20030;-82
2022/09/23 05:08:46;;;;;;;;;;;8.90;99.90;;;;;;5077046;28;19928;-79
2022/09/23 05:11:31;;;;;;;;;;;8.90;99.90;;;;;;5054659;28;19920;-86
2022/09/23 05:13:59;;;;;;;;;;;8.90;99.90;;;;;;5069711;28;19928;-79
2022/09/23 05:16:26;;;;;;;;;;;8.80;99.90;;;;;;5054648;28;19981;-88
2022/09/23 05:18:52;;;;;;;;;;;8.80;99.90;;;;;;5045563;28;19929;-84
2022/09/23 05:21:21;;;;;;;;;;;8.80;99.90;;;;;;5063737;28;20506;-79
2022/09/23 05:23:51;;;;;;;;;;;8.80;99.90;;;;;;5064323;28;19928;-81
2022/09/23 05:26:17;;;;;;;;;;;8.80;99.90;;;;;;5064627;28;19925;-78
2022/09/23 05:28:43;;;;;;;;;;;8.70;99.90;;;;;;5060646;28;19984;-83
2022/09/23 05:31:15;;;;;;;;;;;8.70;99.90;;;;;;5050779;28;20028;-86
2022/09/23 05:33:42;;;;;;;;;;;8.70;99.90;;;;;;5055528;28;19977;-83
2022/09/23 05:36:09;;;;;;;;;;;8.80;99.90;;;;;;5071838;28;20010;-81
2022/09/23 05:38:35;;;;;;;;;;;8.80;99.90;;;;;;5072712;28;19931;-80
2022/09/23 05:41:06;;;;;;;;;;;8.80;99.90;;;;;;5036494;28;20022;-80
2022/09/23 05:43:51;;;;;;;;;;;8.80;99.90;;;;;;5055701;28;19924;-80
2022/09/23 05:46:36;;;;;;;;;;;8.80;99.90;;;;;;5056296;28;19924;-83
2022/09/23 05:49:03;;;;;;;;;;;8.80;99.90;;;;;;5053544;28;19924;-81
2022/09/23 05:51:30;;;;;;;;;;;8.80;99.90;;;;;;5057614;28;19924;-83
2022/09/23 05:54:01;;;;;;;;;;;8.80;99.90;;;;;;5047675;28;19950;-79
2022/09/23 05:56:27;;;;;;;;;;;8.90;99.90;;;;;;5069392;28;19970;-83
2022/09/23 05:58:54;;;;;;;;;;;8.90;99.90;;;;;;5048371;28;19928;-80
2022/09/23 06:01:24;;;;;;;;;;;8.90;99.90;;;;;;5067778;28;19932;-82
2022/09/23 06:03:59;;;;;;;;;;;9.00;99.90;;;;;;5052492;28;19924;-84
2022/09/23 06:06:39;;;;;;;;;;;9.00;99.90;;;;;;5035186;28;21161;-83
2022/09/23 06:09:08;;;;;;;;;;;9.10;99.90;;;;;;5059296;28;20349;-87
2022/09/23 06:11:35;;;;;;;;;;;9.20;99.90;;;;;;5063938;28;19948;-84
2022/09/23 06:14:02;;;;;;;;;;;9.20;99.90;;;;;;5036617;28;20548;-82
2022/09/23 06:16:29;;;;;;;;;;;9.30;99.90;;;;;;5044959;28;19960;-82
2022/09/23 06:18:55;;;;;;;;;;;9.30;99.90;;;;;;5048984;28;19980;-82
2022/09/23 06:21:23;;;;;;;;;;;9.40;99.90;;;;;;5051095;28;19975;-82
2022/09/23 06:23:51;;;;;;;;;;;9.40;99.90;;;;;;5065693;28;19924;-81
2022/09/23 06:26:17;;;;;;;;;;;9.50;99.90;;;;;;5048862;28;19985;-85
2022/09/23 06:28:43;;;;;;;;;;;9.60;99.90;;;;;;5066384;28;20031;-86
2022/09/23 06:31:10;;;;;;;;;;;9.70;99.90;;;;;;5064330;28;19924;-81
2022/09/23 06:33:36;;;;;;;;;;;9.70;99.90;;;;;;5067147;28;19931;-79
2022/09/23 06:36:03;;;;;;;;;;;9.80;99.90;;;;;;5062480;28;19924;-78
2022/09/23 06:38:29;;;;;;;;;;;9.90;99.90;;;;;;5052907;28;20439;-82
2022/09/23 06:40:56;;;;;;;;;;;9.90;99.90;;;;;;5067274;28;20251;-80
2022/09/23 06:43:22;;;;;;;;;;;9.90;99.90;;;;;;5058116;28;20023;-77
2022/09/23 06:45:55;;;;;;;;;;;10.00;99.90;;;;;;5063396;28;19931;-80
2022/09/23 06:48:23;;;;;;;;;;;9.90;99.90;;;;;;5066345;28;19931;-84
2022/09/23 06:50:49;;;;;;;;;;;10.00;99.90;;;;;;5052461;28;20367;-84
2022/09/23 06:53:16;;;;;;;;;;;10.10;99.90;;;;;;5041992;28;19925;-82
2022/09/23 06:55:42;;;;;;;;;;;10.10;99.90;;;;;;5049206;28;19924;-84
2022/09/23 06:58:09;;;;;;;;;;;10.20;99.90;;;;;;5052987;28;19954;-84
2022/09/23 07:00:35;;;;;;;;;;;10.20;99.90;;;;;;5050169;28;20386;-79
2022/09/23 07:03:04;;;;;;;;;;;10.40;99.90;;;;;;5048533;28;20457;-84
2022/09/23 07:05:30;;;;;;;;;;;10.50;99.90;;;;;;5050185;28;19950;-84
2022/09/23 07:07:56;;;;;;;;;;;10.60;99.90;;;;;;5051771;28;19932;-83
2022/09/23 07:10:22;;;;;;;;;;;10.70;99.90;;;;;;5036101;28;19931;-80
2022/09/23 07:12:48;;;;;;;;;;;10.70;99.90;;;;;;5054333;28;19932;-83
2022/09/23 07:15:15;;;;;;;;;;;10.80;99.90;;;;;;5074793;28;19924;-82
2022/09/23 07:17:41;;;;;;;;;;;10.90;99.90;;;;;;5048020;28;20515;-85
2022/09/23 07:20:09;;;;;;;;;;;11.00;99.90;;;;;;5066315;28;20508;-80
2022/09/23 07:22:35;;;;;;;;;;;11.00;99.90;;;;;;5045984;28;19924;-80
2022/09/23 07:25:03;;;;;;;;;;;11.00;99.90;;;;;;5044330;28;19931;-78
2022/09/23 07:27:29;;;;;;;;;;;11.00;99.90;;;;;;5043344;28;19964;-78
2022/09/23 07:29:54;;;;;;;;;;;11.10;99.90;;;;;;5059901;28;20043;-82
2022/09/23 07:32:24;;;;;;;;;;;11.10;99.90;;;;;;5067629;28;19934;-78
2022/09/23 07:34:50;;;;;;;;;;;10.90;99.90;;;;;;5066550;28;19924;-85
2022/09/23 07:37:16;;;;;;;;;;;11.10;99.90;;;;;;5087796;28;19932;-85
2022/09/23 07:39:50;;;;;;;;;;;11.10;99.90;;;;;;5052863;28;19936;-82
2022/09/23 07:42:26;;;;;;;;;;;10.50;99.90;;;;;;5056099;28;19931;-84
2022/09/23 07:44:54;;;;;;;;;;;11.20;99.90;;;;;;5062619;28;19924;-81
2022/09/23 07:47:19;;;;;;;;;;;11.30;99.90;;;;;;5037817;28;19932;-83
2022/09/23 07:49:45;;;;;;;;;;;11.30;99.90;;;;;;5073293;28;19924;-85
2022/09/23 07:52:11;;;;;;;;;;;11.40;99.90;;;;;;5076836;28;19928;-86
2022/09/23 07:54:37;;;;;;;;;;;11.40;99.90;;;;;;5057262;28;19970;-82
2022/09/23 07:57:04;;;;;;;;;;;11.40;99.90;;;;;;5041537;28;19924;-80
2022/09/23 07:59:30;;;;;;;;;;;11.60;99.90;;;;;;5056078;28;19935;-79
2022/09/23 08:01:57;;;;;;;;;;;11.70;99.90;;;;;;5054987;28;19978;-78
2022/09/23 08:04:24;;;;;;;;;;;11.80;99.90;;;;;;5065273;28;19928;-78
2022/09/23 08:06:53;;;;;;;;;;;12.00;99.90;;;;;;5046047;28;19971;-79
2022/09/23 08:09:19;;;;;;;;;;;12.10;99.90;;;;;;5055322;28;19987;-79
2022/09/23 08:11:45;;;;;;;;;;;12.10;99.90;;;;;;5074229;28;20385;-78
2022/09/23 08:14:12;;;;;;;;;;;12.10;99.90;;;;;;5084308;28;19928;-79
2022/09/23 08:16:40;;;;;;;;;;;12.10;99.90;;;;;;5081002;28;20348;-79
2022/09/23 08:19:07;;;;;;;;;;;12.10;99.90;;;;;;5058012;28;20899;-78
2022/09/23 08:21:33;;;;;;;;;;;12.20;99.90;;;;;;5067900;28;19931;-80
2022/09/23 08:23:59;;;;;;;;;;;12.20;99.90;;;;;;5077658;28;20431;-80
2022/09/23 08:26:24;;;;;;;;;;;12.30;99.90;;;;;;5075910;28;19924;-79
2022/09/23 08:28:55;;;;;;;;;;;12.50;99.90;;;;;;5077005;28;19963;-77
2022/09/23 08:31:21;;;;;;;;;;;12.50;99.90;;;;;;5079654;28;20020;-79
2022/09/23 08:33:53;;;;;;;;;;;12.70;99.90;;;;;;5061121;28;19967;-79
2022/09/23 08:36:19;;;;;;;;;;;12.70;99.90;;;;;;5058314;28;20418;-80
2022/09/23 08:38:44;;;;;;;;;;;12.80;99.90;;;;;;5077420;28;19930;-79
2022/09/23 08:41:19;;;;;;;;;;;12.80;99.90;;;;;;5047128;28;19932;-79
2022/09/23 08:43:47;;;;;;;;;;;12.80;99.90;;;;;;5076362;28;19939;-85
2022/09/23 08:46:18;;;;;;;;;;;12.80;99.90;;;;;;5084453;28;19964;-92
2022/09/23 08:48:45;;;;;;;;;;;12.90;99.90;;;;;;5083059;28;20397;-84
2022/09/23 08:51:16;;;;;;;;;;;12.90;99.90;;;;;;5083400;28;19932;-88
2022/09/23 08:56:50;;;;;;;;;;;13.10;99.90;;;;;;5081971;28;19924;-79
2022/09/23 08:59:37;;;;;;;;;;;13.30;99.90;;;;;;5072161;28;19923;-87
2022/09/23 09:02:22;;;;;;;;;;;13.50;99.90;;;;;;5084959;28;20014;-84
2022/09/23 09:04:58;;;;;;;;;;;13.60;99.90;;;;;;5087260;28;20517;-87
2022/09/23 09:07:28;;;;;;;;;;;13.70;99.90;;;;;;5073631;27;19940;-83
2022/09/23 09:10:00;;;;;;;;;;;13.70;99.90;;;;;;5077815;28;20481;-80
2022/09/23 09:12:43;;;;;;;;;;;13.70;99.90;;;;;;5072171;28;19928;-94
2022/09/23 09:15:11;;;;;;;;;;;13.60;99.90;;;;;;5082096;28;19938;-85
2022/09/23 09:17:58;;;;;;;;;;;13.70;99.90;;;;;;5078464;28;20352;-86
2022/09/23 09:20:42;;;;;;;;;;;13.70;99.90;;;;;;5082926;28;19924;-87
2022/09/23 09:23:20;;;;;;;;;;;13.70;99.90;;;;;;5074925;28;20337;-85
2022/09/23 09:26:00;;;;;;;;;;;13.70;99.90;;;;;;5087047;28;19931;-87
2022/09/23 09:28:29;;;;;;;;;;;13.70;99.90;;;;;;5070049;28;19927;-90
2022/09/23 09:30:58;;;;;;;;;;;13.70;99.90;;;;;;5083893;28;19924;-90
2022/09/23 09:33:34;;;;;;;;;;;13.70;99.90;;;;;;5085512;28;20309;-83
2022/09/23 09:36:09;;;;;;;;;;;13.70;99.90;;;;;;5088525;28;19931;-84
2022/09/23 09:38:35;;;;;;;;;;;13.80;99.90;;;;;;5078922;28;19932;-79
2022/09/23 09:41:10;;;;;;;;;;;13.80;99.90;;;;;;5064986;28;19939;-81
2022/09/23 09:43:37;;;;;;;;;;;13.80;99.90;;;;;;5064877;28;20069;-80
2022/09/23 09:46:32;;;;;;;;;;;13.80;99.90;;;;;;5054054;28;19924;-80
2022/09/23 09:49:06;;;;;;;;;;;13.80;99.90;;;;;;5086009;28;20507;-80
2022/09/23 09:51:32;;;;;;;;;;;13.90;99.90;;;;;;5077620;28;19928;-80
2022/09/23 09:54:19;;;;;;;;;;;13.90;99.90;;;;;;5069702;28;20589;-81
2022/09/23 09:56:45;;;;;;;;;;;13.90;99.90;;;;;;5050200;28;20367;-79
2022/09/23 09:59:15;;;;;;;;;;;14.00;99.90;;;;;;5082678;28;19932;-83
2022/09/23 10:01:41;;;;;;;;;;;14.00;99.90;;;;;;5071660;28;19927;-81
2022/09/23 10:04:19;;;;;;;;;;;14.10;99.90;;;;;;5063714;28;19938;-79
2022/09/23 10:07:02;;;;;;;;;;;14.10;99.90;;;;;;5068568;28;19923;-80
2022/09/23 10:09:31;;;;;;;;;;;14.00;99.90;;;;;;5061308;28;20676;-79
2022/09/23 10:18:48;;;;;;;;;;;14.20;99.90;;;;;;5093983;28;19926;-78
2022/09/23 10:21:16;;;;;;;;;;;14.30;99.90;;;;;;5073448;28;19928;-81
2022/09/23 10:23:47;;;;;;;;;;;14.30;99.90;;;;;;5083327;28;20310;-81
2022/09/23 10:26:16;;;;;;;;;;;14.20;99.90;;;;;;5066673;28;19931;-81
2022/09/23 10:28:45;;;;;;;;;;;14.30;99.90;;;;;;5060974;28;19943;-80
2022/09/23 10:31:15;;;;;;;;;;;14.30;99.90;;;;;;5079899;28;20307;-79
2022/09/23 10:33:46;;;;;;;;;;;14.40;99.90;;;;;;5067741;28;20421;-81
2022/09/23 10:36:13;;;;;;;;;;;14.40;99.90;;;;;;5080188;28;19931;-79
2022/09/23 10:38:39;;;;;;;;;;;14.40;99.90;;;;;;5078082;28;20032;-81
2022/09/23 10:46:40;;;;;;;;;;;14.50;99.90;;;;;;5074073;28;19998;-81
2022/09/23 10:49:25;;;;;;;;;;;14.50;99.90;;;;;;5077633;28;20397;-79
2022/09/23 10:51:54;;;;;;;;;;;14.50;99.90;;;;;;5097515;28;19935;-78
2022/09/23 10:54:37;;;;;;;;;;;14.60;99.90;;;;;;5074444;28;19971;-82
2022/09/23 10:57:42;;;;;;;;;;;14.60;99.90;;;;;;5047314;28;20048;-82
2022/09/23 11:00:23;;;;;;;;;;;14.60;99.90;;;;;;5062304;28;19932;-80
2022/09/23 11:02:55;;;;;;;;;;;14.70;99.90;;;;;;5100074;27;20371;-85
2022/09/23 11:05:31;;;;;;;;;;;14.70;99.90;;;;;;5082965;28;19935;-79
2022/09/23 11:08:18;;;;;;;;;;;14.70;99.90;;;;;;5086164;28;20406;-81
2022/09/23 11:10:47;;;;;;;;;;;14.80;99.90;;;;;;5034265;28;19928;-79
2022/09/23 11:13:19;;;;;;;;;;;14.80;99.90;;;;;;5082018;28;20015;-78
2022/09/23 11:15:55;;;;;;;;;;;14.90;99.90;;;;;;5086544;28;19924;-80
2022/09/23 11:18:28;;;;;;;;;;;14.90;99.90;;;;;;5080023;28;19997;-81
2022/09/23 11:21:13;;;;;;;;;;;15.00;99.90;;;;;;5066436;28;19934;-79
2022/09/23 11:23:39;;;;;;;;;;;15.10;99.90;;;;;;5078055;28;19939;-80
2022/09/23 11:26:22;;;;;;;;;;;15.10;99.90;;;;;;5076567;28;20700;-82
2022/09/23 11:28:57;;;;;;;;;;;15.20;99.90;;;;;;5083121;28;20041;-78
2022/09/23 11:31:40;;;;;;;;;;;15.20;99.90;;;;;;5082132;28;20282;-82
2022/09/23 11:34:14;;;;;;;;;;;15.30;99.90;;;;;;5077069;28;19924;-80
2022/09/23 11:36:46;;;;;;;;;;;15.30;99.90;;;;;;5063180;28;20637;-81
2022/09/23 11:39:24;;;;;;;;;;;15.30;99.90;;;;;;5081855;28;19936;-81
2022/09/23 11:41:53;;;;;;;;;;;15.30;99.90;;;;;;5078684;28;19938;-81
2022/09/23 11:44:25;;;;;;;;;;;15.30;99.90;;;;;;5084105;28;19927;-78
2022/09/23 11:46:54;;;;;;;;;;;15.30;99.90;;;;;;5075064;28;19932;-80
2022/09/23 11:49:25;;;;;;;;;;;15.40;99.90;;;;;;5073287;28;19976;-80
2022/09/23 11:52:11;;;;;;;;;;;15.40;99.90;;;;;;5067310;28;20027;-82
2022/09/23 11:54:56;;;;;;;;;;;15.40;99.90;;;;;;5076950;28;20830;-80
2022/09/23 11:57:28;;;;;;;;;;;15.40;99.90;;;;;;5061716;28;20389;-89
2022/09/23 11:59:57;;;;;;;;;;;15.40;99.90;;;;;;5076409;28;19931;-81
2022/09/23 12:02:27;;;;;;;;;;;15.40;99.90;;;;;;5082744;28;19983;-82
2022/09/23 12:04:59;;;;;;;;;;;15.40;99.90;;;;;;5085756;28;20015;-80
2022/09/23 12:07:30;;;;;;;;;;;15.30;99.90;;;;;;5069099;28;19945;-85
2022/09/23 12:10:08;;;;;;;;;;;15.40;99.90;;;;;;5079224;28;19934;-86
2022/09/23 12:12:46;;;;;;;;;;;15.30;99.90;;;;;;5081540;28;20169;-84
2022/09/23 12:15:31;;;;;;;;;;;15.40;99.90;;;;;;5065458;28;19931;-81
2022/09/23 12:18:16;;;;;;;;;;;15.30;99.90;;;;;;5098001;28;19924;-85
2022/09/23 12:20:42;;;;;;;;;;;15.30;99.90;;;;;;5084668;28;19936;-79
2022/09/23 12:23:31;;;;;;;;;;;15.40;99.90;;;;;;5073335;28;19940;-79
2022/09/23 12:25:59;;;;;;;;;;;15.40;99.90;;;;;;5084965;28;20504;-83
2022/09/23 12:28:32;;;;;;;;;;;15.30;99.90;;;;;;5078836;28;19970;-83
2022/09/23 12:30:58;;;;;;;;;;;15.40;99.90;;;;;;5062541;28;20294;-81
2022/09/23 12:33:26;;;;;;;;;;;15.40;99.90;;;;;;5082644;28;19986;-82
2022/09/23 12:36:03;;;;;;;;;;;15.40;99.90;;;;;;5059111;28;19940;-81
2022/09/23 12:38:47;;;;;;;;;;;15.40;99.90;;;;;;5068513;28;19964;-79
2022/09/23 12:41:23;;;;;;;;;;;15.40;99.90;;;;;;5087090;28;19982;-81
2022/09/23 12:43:53;;;;;;;;;;;15.50;99.90;;;;;;5071243;28;19973;-82
2022/09/23 12:46:24;;;;;;;;;;;15.50;99.90;;;;;;5096647;28;20065;-82
2022/09/23 12:48:56;;;;;;;;;;;15.50;99.90;;;;;;5077211;28;20374;-83
2022/09/23 12:51:23;;;;;;;;;;;15.60;99.90;;;;;;5059808;28;19925;-81
2022/09/23 12:54:04;;;;;;;;;;;15.60;99.90;;;;;;5069162;28;19997;-82
2022/09/23 12:56:30;;;;;;;;;;;15.60;99.90;;;;;;5093464;28;19932;-80
2022/09/23 12:59:01;;;;;;;;;;;15.60;99.90;;;;;;5081057;28;20409;-84
2022/09/23 13:01:27;;;;;;;;;;;15.70;99.90;;;;;;5075306;28;19928;-80
2022/09/23 13:06:41;;;;;;;;;;;15.80;99.90;;;;;;5082574;28;19924;-83
2022/09/23 13:09:19;;;;;;;;;;;15.80;99.90;;;;;;5068533;28;19924;-79
2022/09/23 13:11:46;;;;;;;;;;;15.80;99.90;;;;;;5079867;28;19927;-84
2022/09/23 13:14:16;;;;;;;;;;;15.80;99.90;;;;;;5069287;28;19976;-82
2022/09/23 13:16:44;;;;;;;;;;;15.90;99.90;;;;;;5084714;28;19934;-81
2022/09/23 13:19:25;;;;;;;;;;;15.90;99.90;;;;;;5066518;28;19941;-84
2022/09/23 13:22:06;;;;;;;;;;;15.90;99.90;;;;;;5103005;28;19928;-85
2022/09/23 13:24:41;;;;;;;;;;;15.90;99.90;;;;;;5087516;28;20400;-80
2022/09/23 13:27:21;;;;;;;;;;;16.00;99.90;;;;;;5080149;28;19928;-85
2022/09/23 13:29:47;;;;;;;;;;;16.00;99.90;;;;;;5083089;28;19924;-82
2022/09/23 13:32:16;;;;;;;;;;;16.00;99.90;;;;;;5087097;28;19980;-86
2022/09/23 13:34:46;;;;;;;;;;;16.00;99.90;;;;;;5064251;28;19932;-93
2022/09/23 13:37:20;;;;;;;;;;;16.00;99.90;;;;;;5067964;28;19927;-83
2022/09/23 13:39:46;;;;;;;;;;;16.00;99.90;;;;;;5084905;28;20565;-84
2022/09/23 13:42:19;;;;;;;;;;;16.00;99.90;;;;;;5069638;28;20007;-81
2022/09/23 13:44:45;;;;;;;;;;;16.00;99.90;;;;;;5083920;28;20513;-85
2022/09/23 13:47:12;;;;;;;;;;;15.90;99.90;;;;;;5089913;28;20014;-81
2022/09/23 13:49:38;;;;;;;;;;;15.90;99.90;;;;;;5063595;28;19928;-84
2022/09/23 13:52:04;;;;;;;;;;;15.90;99.90;;;;;;5082653;28;19989;-82
2022/09/23 13:54:32;;;;;;;;;;;15.90;99.90;;;;;;5074315;28;20389;-86
2022/09/23 13:56:59;;;;;;;;;;;15.90;99.90;;;;;;5086788;28;19927;-84
2022/09/23 13:59:40;;;;;;;;;;;15.90;99.90;;;;;;5070803;28;20015;-84
2022/09/23 14:02:10;;;;;;;;;;;15.80;99.90;;;;;;5088206;28;20317;-84
2022/09/23 14:04:36;;;;;;;;;;;15.80;99.90;;;;;;5082386;28;19924;-81
2022/09/23 14:07:03;;;;;;;;;;;15.80;99.90;;;;;;5073675;28;19938;-83
2022/09/23 14:09:29;;;;;;;;;;;15.70;99.90;;;;;;5051883;28;20706;-85
2022/09/23 14:11:57;;;;;;;;;;;15.60;99.90;;;;;;5099015;28;20369;-80
2022/09/23 14:14:23;;;;;;;;;;;15.70;99.90;;;;;;5086535;28;20019;-85
2022/09/23 14:16:51;;;;;;;;;;;15.60;99.90;;;;;;5068999;28;19977;-83
2022/09/23 14:19:17;;;;;;;;;;;15.60;99.90;;;;;;5053602;28;19928;-82
2022/09/23 14:21:46;;;;;;;;;;;15.50;99.90;;;;;;5073104;28;19927;-82
2022/09/23 14:24:17;;;;;;;;;;;15.50;99.90;;;;;;5085563;28;19930;-82
2022/09/23 14:26:47;;;;;;;;;;;15.50;99.90;;;;;;5086043;28;20279;-84
2022/09/23 14:29:15;;;;;;;;;;;15.40;99.90;;;;;;5071744;28;19924;-81
2022/09/23 14:31:43;;;;;;;;;;;15.40;99.90;;;;;;5085921;28;20307;-83
2022/09/23 14:34:28;;;;;;;;;;;15.30;99.90;;;;;;5071245;28;19928;-81
2022/09/23 14:39:39;;;;;;;;;;;15.20;99.90;;;;;;5085683;28;20513;-83
2022/09/23 14:42:06;;;;;;;;;;;15.20;99.90;;;;;;5083778;28;19924;-82
2022/09/23 14:44:34;;;;;;;;;;;15.10;99.90;;;;;;5069000;28;19954;-84
2022/09/23 14:47:00;;;;;;;;;;;15.10;99.90;;;;;;5104379;28;19931;-82
2022/09/23 14:49:26;;;;;;;;;;;15.10;99.90;;;;;;5052943;28;21226;-84
2022/09/23 14:51:55;;;;;;;;;;;15.00;99.90;;;;;;5063740;28;19945;-83
2022/09/23 14:54:21;;;;;;;;;;;15.00;99.90;;;;;;5102966;28;19923;-83
2022/09/23 14:56:47;;;;;;;;;;;15.00;99.90;;;;;;5081299;28;19936;-79
2022/09/23 14:59:24;;;;;;;;;;;15.00;99.90;;;;;;5046130;28;20364;-81
2022/09/23 15:01:50;;;;;;;;;;;14.90;99.90;;;;;;5072099;28;20020;-82
2022/09/23 15:04:26;;;;;;;;;;;14.90;99.90;;;;;;5061953;28;20374;-82
2022/09/23 15:06:54;;;;;;;;;;;14.90;99.90;;;;;;5072905;28;19924;-82
2022/09/23 15:09:22;;;;;;;;;;;14.90;99.90;;;;;;5089616;28;19927;-84
2022/09/23 15:11:50;;;;;;;;;;;14.90;99.90;;;;;;5069654;28;19923;-82
2022/09/23 15:14:19;;;;;;;;;;;14.80;99.90;;;;;;5085855;28;20026;-86
2022/09/23 15:16:46;;;;;;;;;;;14.80;99.90;;;;;;5070580;28;19924;-82